Terminal Aerodrome Forecast
Issued by NWS

Home | Current Version | Previous Version | Text Only | Print | Product List | Glossary On
Versions: 1 2 3 4 5 6 7 8 9 10 11 12
000
FTUS45 KRIW 191100
TAFJAC
TAF
KJAC 191134Z 1912/2012 VRB04KT P6SM FEW050 SCT250
     FM192000 30010KT P6SM VCSH SCT050 BKN080
     FM200300 36009KT P6SM BKN070
      AMD LTD TO CLD VIS AND WIND=

USA.gov is the U.S. government's official web portal to all federal, state and local government web resources and services.